Time,TemperatureF,DewpointF,PressureIn,WindDirection,WindDirectionDegrees,WindSpeedMPH,WindSpeedGustMPH,Humidity,HourlyPrecipIn,Conditions,Clouds,dailyrainin,SolarRadiationWatts/m^2,SoftwareType,DateUTC
2013-02-21 00:02:00,21.0,11.0,-100.00,ENE,77,2.0,7.0,66,0.00,,,0.00,0.000000,,2013-02-21 05:02:00,
2013-02-21 00:37:00,20.0,12.0,-100.00,ENE,73,2.0,5.0,70,0.00,,,0.00,0.000000,,2013-02-21 05:37:00,
2013-02-21 00:46:00,20.0,12.0,-100.00,ENE,73,2.0,5.0,70,0.00,,,0.00,0.000000,,2013-02-21 05:46:00,
2013-02-21 01:00:00,20.0,12.0,-100.00,ENE,73,2.0,5.0,70,0.00,,,0.00,0.000000,,2013-02-21 06:00:00,
2013-02-21 01:31:00,19.0,13.0,-100.00,ENE,69,2.0,6.0,76,0.00,,,0.00,0.000000,,2013-02-21 06:31:00,
2013-02-21 01:41:00,19.0,13.0,-100.00,ENE,69,2.0,6.0,76,0.00,,,0.00,0.000000,,2013-02-21 06:41:00,
2013-02-21 01:51:00,19.0,13.0,-100.00,ENE,69,2.0,6.0,76,0.00,,,0.00,0.000000,,2013-02-21 06:51:00,
2013-02-21 02:01:00,19.0,13.0,-100.00,ENE,69,2.0,6.0,76,0.00,,,0.00,0.000000,,2013-02-21 07:01:00,
2013-02-21 02:32:00,19.0,14.0,-100.00,East,79,2.0,7.0,80,0.00,,,-99.99,0.000000,,2013-02-21 07:32:00,
2013-02-21 02:42:00,19.0,14.0,-100.00,East,79,2.0,7.0,80,0.00,,,-99.99,0.000000,,2013-02-21 07:42:00,
2013-02-21 02:52:00,19.0,14.0,-100.00,East,79,2.0,7.0,80,0.00,,,-99.99,0.000000,,2013-02-21 07:52:00,
2013-02-21 03:01:00,19.0,14.0,-100.00,East,79,2.0,7.0,80,0.00,,,-99.99,0.000000,,2013-02-21 08:01:00,
2013-02-21 03:42:00,18.0,14.0,-100.00,East,88,1.0,5.0,83,0.00,,,0.00,0.000000,,2013-02-21 08:42:00,
2013-02-21 03:52:00,18.0,14.0,-100.00,East,88,1.0,5.0,83,0.00,,,0.00,0.000000,,2013-02-21 08:52:00,
2013-02-21 04:01:00,18.0,14.0,-100.00,East,88,1.0,5.0,83,0.00,,,0.00,0.000000,,2013-02-21 09:01:00,
2013-02-21 04:42:00,18.0,14.0,-100.00,ENE,74,3.0,6.0,83,0.00,,,0.00,0.000000,,2013-02-21 09:42:00,
2013-02-21 04:52:00,18.0,14.0,-100.00,ENE,74,3.0,6.0,83,0.00,,,0.00,0.000000,,2013-02-21 09:52:00,
2013-02-21 05:01:00,18.0,14.0,-100.00,ENE,74,3.0,6.0,83,0.00,,,0.00,0.000000,,2013-02-21 10:01:00,
2013-02-21 05:31:00,17.0,12.0,-100.00,ENE,68,1.0,7.0,81,0.00,,,0.00,0.000000,,2013-02-21 10:31:00,
2013-02-21 05:41:00,17.0,12.0,-100.00,ENE,68,1.0,7.0,81,0.00,,,0.00,0.000000,,2013-02-21 10:41:00,
2013-02-21 05:51:00,17.0,12.0,-100.00,ENE,68,1.0,7.0,81,0.00,,,0.00,0.000000,,2013-02-21 10:51:00,
2013-02-21 06:01:00,17.0,12.0,-100.00,ENE,68,1.0,7.0,81,0.00,,,0.00,0.000000,,2013-02-21 11:01:00,
2013-02-21 06:41:00,17.0,13.0,-100.00,ENE,74,3.0,8.0,83,0.00,,,0.00,0.000000,,2013-02-21 11:41:00,
2013-02-21 06:52:00,17.0,13.0,-100.00,ENE,74,3.0,8.0,83,0.00,,,0.00,0.000000,,2013-02-21 11:52:00,
2013-02-21 07:01:00,17.0,13.0,-100.00,ENE,74,3.0,8.0,83,0.00,,,0.00,0.000000,,2013-02-21 12:01:00,
2013-02-21 07:32:00,17.0,12.0,-100.00,East,85,4.0,9.0,82,0.00,,,0.00,0.000000,,2013-02-21 12:32:00,
2013-02-21 07:43:00,17.0,12.0,-100.00,East,85,4.0,9.0,82,0.00,,,0.00,0.000000,,2013-02-21 12:43:00,
2013-02-21 07:53:00,17.0,12.0,-100.00,East,85,4.0,9.0,82,0.00,,,0.00,0.000000,,2013-02-21 12:53:00,
2013-02-21 08:02:00,17.0,12.0,-100.00,East,85,4.0,9.0,82,0.00,,,0.00,0.000000,,2013-02-21 13:02:00,
2013-02-21 09:32:00,22.0,13.0,-100.00,ESE,110,4.0,11.0,68,-99.99,,,0.00,194.000000,,2013-02-21 14:32:00,
2013-02-21 09:42:00,22.0,13.0,-100.00,ESE,110,4.0,11.0,68,-99.99,,,0.00,194.000000,,2013-02-21 14:42:00,
2013-02-21 09:52:00,22.0,13.0,-100.00,ESE,110,4.0,11.0,68,-99.99,,,0.00,194.000000,,2013-02-21 14:52:00,
2013-02-21 10:01:00,22.0,13.0,-100.00,ESE,110,4.0,11.0,68,-99.99,,,0.00,194.000000,,2013-02-21 15:01:00,
2013-02-21 10:32:00,24.0,14.0,-100.00,ESE,102,6.0,14.0,65,0.00,,,0.00,361.000000,,2013-02-21 15:32:00,
2013-02-21 10:42:00,24.0,14.0,-100.00,ESE,102,6.0,14.0,65,0.00,,,0.00,361.000000,,2013-02-21 15:42:00,
2013-02-21 10:52:00,24.0,14.0,-100.00,ESE,102,6.0,14.0,65,0.00,,,0.00,361.000000,,2013-02-21 15:52:00,
2013-02-21 11:01:00,24.0,14.0,-100.00,ESE,102,6.0,14.0,65,0.00,,,0.00,361.000000,,2013-02-21 16:01:00,
2013-02-21 11:42:00,28.0,16.0,-100.00,East,93,5.0,13.0,60,0.00,,,0.00,488.000000,,2013-02-21 16:42:00,
2013-02-21 11:52:00,28.0,16.0,-100.00,East,93,5.0,13.0,60,0.00,,,0.00,488.000000,,2013-02-21 16:52:00,
2013-02-21 12:01:00,28.0,16.0,-100.00,East,93,5.0,13.0,60,0.00,,,0.00,488.000000,,2013-02-21 17:01:00,
2013-02-21 12:32:00,31.0,16.0,-100.00,SE,134,5.0,13.0,53,0.00,,,0.00,519.000000,,2013-02-21 17:32:00,
2013-02-21 12:42:00,31.0,16.0,-100.00,SE,134,5.0,13.0,53,0.00,,,0.00,519.000000,,2013-02-21 17:42:00,
2013-02-21 12:52:00,31.0,16.0,-100.00,SE,134,5.0,13.0,53,0.00,,,0.00,519.000000,,2013-02-21 17:52:00,
2013-02-21 13:02:00,31.0,16.0,-100.00,SE,134,5.0,13.0,53,0.00,,,0.00,519.000000,,2013-02-21 18:02:00,
2013-02-21 14:42:00,34.0,18.0,-100.00,SSE,147,6.0,13.0,51,-99.99,,,0.00,536.000000,,2013-02-21 19:42:00,
2013-02-21 14:52:00,34.0,18.0,-100.00,SSE,147,6.0,13.0,51,-99.99,,,0.00,536.000000,,2013-02-21 19:52:00,
2013-02-21 15:01:00,34.0,18.0,-100.00,SSE,147,6.0,13.0,51,-99.99,,,0.00,536.000000,,2013-02-21 20:01:00,
2013-02-21 15:42:00,34.0,17.0,-100.00,SE,133,6.0,15.0,50,0.00,,,0.00,272.000000,,2013-02-21 20:42:00,
2013-02-21 15:53:00,34.0,17.0,-100.00,SE,133,6.0,15.0,50,0.00,,,0.00,272.000000,,2013-02-21 20:53:00,
2013-02-21 16:02:00,34.0,17.0,-100.00,SE,133,6.0,15.0,50,0.00,,,0.00,272.000000,,2013-02-21 21:02:00,
2013-02-21 16:42:00,33.0,17.0,-100.00,ESE,114,6.0,15.0,52,0.00,,,0.00,113.000000,,2013-02-21 21:42:00,
2013-02-21 16:52:00,33.0,17.0,-100.00,ESE,114,6.0,15.0,52,0.00,,,0.00,113.000000,,2013-02-21 21:52:00,
2013-02-21 17:01:00,33.0,17.0,-100.00,ESE,114,6.0,15.0,52,0.00,,,0.00,113.000000,,2013-02-21 22:01:00,
2013-02-21 17:42:00,32.0,19.0,-100.00,East,94,3.0,15.0,58,0.00,,,0.00,24.000000,,2013-02-21 22:42:00,
2013-02-21 17:52:00,32.0,19.0,-100.00,East,94,3.0,15.0,58,0.00,,,0.00,24.000000,,2013-02-21 22:52:00,
2013-02-21 18:01:00,32.0,19.0,-100.00,East,94,3.0,15.0,58,0.00,,,0.00,24.000000,,2013-02-21 23:01:00,
2013-02-21 18:42:00,31.0,25.0,-100.00,East,87,1.0,12.0,79,0.00,,,0.00,8.000000,,2013-02-21 23:42:00,
2013-02-21 18:52:00,31.0,25.0,-100.00,East,87,1.0,12.0,79,0.00,,,0.00,8.000000,,2013-02-21 23:52:00,
2013-02-21 19:01:00,31.0,25.0,-100.00,East,87,1.0,12.0,79,0.00,,,0.00,8.000000,,2013-02-22 00:01:00,
2013-02-21 19:32:00,29.0,25.0,-100.00,ESE,104,4.0,12.0,85,0.00,,,0.00,0.000000,,2013-02-22 00:32:00,
2013-02-21 19:42:00,29.0,25.0,-100.00,ESE,104,4.0,12.0,85,0.00,,,0.00,0.000000,,2013-02-22 00:42:00,
2013-02-21 19:52:00,29.0,25.0,-100.00,ESE,104,4.0,12.0,85,0.00,,,0.00,0.000000,,2013-02-22 00:52:00,
2013-02-21 20:01:00,29.0,25.0,-100.00,ESE,104,4.0,12.0,85,0.00,,,0.00,0.000000,,2013-02-22 01:01:00,
2013-02-21 20:42:00,28.0,25.0,-100.00,SE,124,7.0,16.0,90,0.00,,,0.00,0.000000,,2013-02-22 01:42:00,
2013-02-21 20:52:00,28.0,25.0,-100.00,SE,124,7.0,16.0,90,0.00,,,0.00,0.000000,,2013-02-22 01:52:00,
2013-02-21 21:02:00,28.0,25.0,-100.00,SE,124,7.0,16.0,90,0.00,,,0.00,0.000000,,2013-02-22 02:02:00,
2013-02-21 21:32:00,28.0,26.0,-100.00,ESE,121,7.0,19.0,91,0.00,,,0.00,0.000000,,2013-02-22 02:32:00,
2013-02-21 21:42:00,28.0,26.0,-100.00,ESE,121,7.0,19.0,91,0.00,,,0.00,0.000000,,2013-02-22 02:42:00,
2013-02-21 21:52:00,28.0,26.0,-100.00,ESE,121,7.0,19.0,91,0.00,,,0.00,0.000000,,2013-02-22 02:52:00,
2013-02-21 22:01:00,28.0,26.0,-100.00,ESE,121,7.0,19.0,91,0.00,,,0.00,0.000000,,2013-02-22 03:01:00,
2013-02-21 22:32:00,29.0,26.0,-100.00,SE,139,5.0,18.0,90,0.00,,,0.00,0.000000,,2013-02-22 03:32:00,
2013-02-21 22:42:00,29.0,26.0,-100.00,SE,139,5.0,18.0,90,0.00,,,0.00,0.000000,,2013-02-22 03:42:00,
2013-02-21 22:52:00,29.0,26.0,-100.00,SE,139,5.0,18.0,90,0.00,,,0.00,0.000000,,2013-02-22 03:52:00,
2013-02-21 23:01:00,29.0,26.0,-100.00,SE,139,5.0,18.0,90,0.00,,,0.00,0.000000,,2013-02-22 04:01:00,
2013-02-21 23:32:00,30.0,28.0,-100.00,SSE,150,5.0,14.0,91,0.00,,,-99.99,0.000000,,2013-02-22 04:32:00,
2013-02-21 23:42:00,30.0,28.0,-100.00,SSE,150,5.0,14.0,91,0.00,,,-99.99,0.000000,,2013-02-22 04:42:00,
2013-02-21 23:52:00,30.0,28.0,-100.00,SSE,150,5.0,14.0,91,0.00,,,-99.99,0.000000,,2013-02-22 04:52:00,